sensor_id;sensor_type;location;lat;lon;timestamp;pressure;altitude;pressure_sealevel;temperature;humidity
4834;BME280;12895;51.064;7.028;2023-07-20T00:01:09;100587.75;;;18.41;64.40
4834;BME280;12895;51.064;7.028;2023-07-20T00:03:58;100580.03;;;18.47;64.70
4834;BME280;12895;51.064;7.028;2023-07-20T00:06:45;100583.22;;;18.38;64.67
4834;BME280;12895;51.064;7.028;2023-07-20T00:09:32;100583.44;;;18.40;64.57
4834;BME280;12895;51.064;7.028;2023-07-20T00:12:18;100583.53;;;18.35;64.90
4834;BME280;12895;51.064;7.028;2023-07-20T00:15:06;100584.88;;;18.28;65.33
4834;BME280;12895;51.064;7.028;2023-07-20T00:17:53;100588.41;;;18.47;64.58
4834;BME280;12895;51.064;7.028;2023-07-20T00:20:41;100585.16;;;18.25;65.38
4834;BME280;12895;51.064;7.028;2023-07-20T00:23:28;100576.22;;;18.26;65.36
4834;BME280;12895;51.064;7.028;2023-07-20T00:26:15;100586.53;;;18.18;65.85
4834;BME280;12895;51.064;7.028;2023-07-20T00:29:02;100579.28;;;18.28;65.74
4834;BME280;12895;51.064;7.028;2023-07-20T00:31:50;100575.34;;;18.37;65.43
4834;BME280;12895;51.064;7.028;2023-07-20T00:34:36;100579.28;;;18.28;65.78
4834;BME280;12895;51.064;7.028;2023-07-20T00:37:25;100582.06;;;18.28;65.93
4834;BME280;12895;51.064;7.028;2023-07-20T00:40:12;100574.56;;;18.36;65.85
4834;BME280;12895;51.064;7.028;2023-07-20T00:42:59;100577.00;;;18.27;65.85
4834;BME280;12895;51.064;7.028;2023-07-20T00:45:46;100576.94;;;18.32;65.88
4834;BME280;12895;51.064;7.028;2023-07-20T00:48:33;100576.72;;;18.30;65.81
4834;BME280;12895;51.064;7.028;2023-07-20T00:51:23;100577.16;;;18.34;65.79
4834;BME280;12895;51.064;7.028;2023-07-20T00:54:12;100570.19;;;18.41;65.61
4834;BME280;12895;51.064;7.028;2023-07-20T00:57:00;100575.69;;;18.46;65.44
4834;BME280;12895;51.064;7.028;2023-07-20T00:59:47;100582.41;;;18.56;65.10
4834;BME280;12895;51.064;7.028;2023-07-20T01:02:35;100574.69;;;18.62;64.86
4834;BME280;12895;51.064;7.028;2023-07-20T01:05:27;100585.63;;;18.47;65.46
4834;BME280;12895;51.064;7.028;2023-07-20T01:08:24;100580.25;;;18.49;65.14
4834;BME280;12895;51.064;7.028;2023-07-20T01:11:21;100580.16;;;18.36;65.79
4834;BME280;12895;51.064;7.028;2023-07-20T01:14:11;100582.56;;;18.45;65.29
4834;BME280;12895;51.064;7.028;2023-07-20T01:16:58;100576.53;;;18.41;65.58
4834;BME280;12895;51.064;7.028;2023-07-20T01:19:46;100570.94;;;18.41;65.49
4834;BME280;12895;51.064;7.028;2023-07-20T01:22:47;100584.56;;;18.32;65.90
4834;BME280;12895;51.064;7.028;2023-07-20T01:25:57;100582.53;;;18.32;65.88
4834;BME280;12895;51.064;7.028;2023-07-20T01:29:16;100572.31;;;18.35;65.65
4834;BME280;12895;51.064;7.028;2023-07-20T01:32:08;100574.72;;;18.25;66.04
4834;BME280;12895;51.064;7.028;2023-07-20T01:34:56;100571.25;;;18.19;66.08
4834;BME280;12895;51.064;7.028;2023-07-20T01:37:46;100574.13;;;18.32;66.09
4834;BME280;12895;51.064;7.028;2023-07-20T01:40:34;100564.28;;;18.26;66.11
4834;BME280;12895;51.064;7.028;2023-07-20T01:43:24;100566.66;;;18.40;65.59
4834;BME280;12895;51.064;7.028;2023-07-20T01:46:11;100565.03;;;18.45;65.49
4834;BME280;12895;51.064;7.028;2023-07-20T01:48:59;100564.34;;;18.57;65.24
4834;BME280;12895;51.064;7.028;2023-07-20T01:51:46;100565.94;;;18.53;65.22
4834;BME280;12895;51.064;7.028;2023-07-20T01:54:33;100563.22;;;18.47;65.36
4834;BME280;12895;51.064;7.028;2023-07-20T01:57:20;100571.84;;;18.49;65.44
4834;BME280;12895;51.064;7.028;2023-07-20T02:00:11;100567.75;;;18.50;65.73
4834;BME280;12895;51.064;7.028;2023-07-20T02:03:00;100569.25;;;18.51;66.76
4834;BME280;12895;51.064;7.028;2023-07-20T02:05:49;100572.56;;;18.68;66.65
4834;BME280;12895;51.064;7.028;2023-07-20T02:08:36;100572.97;;;18.72;67.10
4834;BME280;12895;51.064;7.028;2023-07-20T02:11:23;100571.53;;;18.53;68.24
4834;BME280;12895;51.064;7.028;2023-07-20T02:14:10;100570.06;;;18.33;68.69
4834;BME280;12895;51.064;7.028;2023-07-20T02:16:57;100562.47;;;18.28;69.18
4834;BME280;12895;51.064;7.028;2023-07-20T02:19:50;100555.22;;;18.20;69.27
4834;BME280;12895;51.064;7.028;2023-07-20T02:22:39;100561.75;;;18.09;69.60
4834;BME280;12895;51.064;7.028;2023-07-20T02:25:27;100560.38;;;17.97;70.37
4834;BME280;12895;51.064;7.028;2023-07-20T02:28:14;100559.94;;;17.93;70.79
4834;BME280;12895;51.064;7.028;2023-07-20T02:31:01;100561.22;;;17.92;70.47
4834;BME280;12895;51.064;7.028;2023-07-20T02:33:49;100561.59;;;17.83;71.04
4834;BME280;12895;51.064;7.028;2023-07-20T02:36:36;100559.88;;;17.80;70.74
4834;BME280;12895;51.064;7.028;2023-07-20T02:39:24;100557.66;;;17.73;70.87
4834;BME280;12895;51.064;7.028;2023-07-20T02:42:11;100567.91;;;17.65;71.14
4834;BME280;12895;51.064;7.028;2023-07-20T02:44:58;100563.69;;;17.59;71.46
4834;BME280;12895;51.064;7.028;2023-07-20T02:47:45;100563.19;;;17.60;71.17
4834;BME280;12895;51.064;7.028;2023-07-20T02:50:32;100561.88;;;17.61;71.24
4834;BME280;12895;51.064;7.028;2023-07-20T02:53:20;100562.78;;;17.69;70.98
4834;BME280;12895;51.064;7.028;2023-07-20T02:56:08;100565.34;;;17.67;71.05
4834;BME280;12895;51.064;7.028;2023-07-20T02:58:55;100568.28;;;17.56;71.42
4834;BME280;12895;51.064;7.028;2023-07-20T03:01:43;100570.78;;;17.60;71.41
4834;BME280;12895;51.064;7.028;2023-07-20T03:04:30;100570.16;;;17.48;71.90
4834;BME280;12895;51.064;7.028;2023-07-20T03:07:17;100569.34;;;17.53;71.98
4834;BME280;12895;51.064;7.028;2023-07-20T03:10:05;100576.66;;;17.56;71.69
4834;BME280;12895;51.064;7.028;2023-07-20T03:12:56;100573.66;;;17.54;71.97
4834;BME280;12895;51.064;7.028;2023-07-20T03:15:43;100568.28;;;17.56;72.02
4834;BME280;12895;51.064;7.028;2023-07-20T03:18:30;100574.56;;;17.62;71.53
4834;BME280;12895;51.064;7.028;2023-07-20T03:21:17;100571.56;;;17.60;71.76
4834;BME280;12895;51.064;7.028;2023-07-20T03:24:05;100576.31;;;17.65;71.75
4834;BME280;12895;51.064;7.028;2023-07-20T03:26:52;100577.00;;;17.71;71.36
4834;BME280;12895;51.064;7.028;2023-07-20T03:29:40;100576.75;;;17.69;71.44
4834;BME280;12895;51.064;7.028;2023-07-20T03:32:30;100578.97;;;17.76;71.33
4834;BME280;12895;51.064;7.028;2023-07-20T03:35:17;100576.22;;;17.52;72.14
4834;BME280;12895;51.064;7.028;2023-07-20T03:38:04;100573.06;;;17.61;71.68
4834;BME280;12895;51.064;7.028;2023-07-20T03:40:51;100577.16;;;17.60;71.80
4834;BME280;12895;51.064;7.028;2023-07-20T03:43:39;100577.00;;;17.71;71.51
4834;BME280;12895;51.064;7.028;2023-07-20T03:46:27;100582.13;;;17.67;71.34
4834;BME280;12895;51.064;7.028;2023-07-20T03:49:14;100577.31;;;17.86;70.79
4834;BME280;12895;51.064;7.028;2023-07-20T03:52:01;100583.41;;;17.66;71.11
4834;BME280;12895;51.064;7.028;2023-07-20T03:54:49;100599.38;;;17.71;71.50
4834;BME280;12895;51.064;7.028;2023-07-20T03:57:37;100590.16;;;17.76;71.31
4834;BME280;12895;51.064;7.028;2023-07-20T04:00:24;100588.78;;;17.64;71.79
4834;BME280;12895;51.064;7.028;2023-07-20T04:03:14;100600.28;;;17.79;71.19
4834;BME280;12895;51.064;7.028;2023-07-20T04:06:01;100597.56;;;17.92;70.64
4834;BME280;12895;51.064;7.028;2023-07-20T04:08:48;100595.59;;;17.87;70.70
4834;BME280;12895;51.064;7.028;2023-07-20T04:11:35;100606.91;;;17.76;70.89
4834;BME280;12895;51.064;7.028;2023-07-20T04:14:22;100600.88;;;17.72;71.06
4834;BME280;12895;51.064;7.028;2023-07-20T04:17:09;100604.03;;;17.82;70.76
4834;BME280;12895;51.064;7.028;2023-07-20T04:20:00;100608.19;;;17.75;70.94
4834;BME280;12895;51.064;7.028;2023-07-20T04:22:48;100606.47;;;17.72;71.25
4834;BME280;12895;51.064;7.028;2023-07-20T04:25:35;100611.00;;;17.75;70.98
4834;BME280;12895;51.064;7.028;2023-07-20T04:28:26;100607.28;;;17.67;71.44
4834;BME280;12895;51.064;7.028;2023-07-20T04:31:14;100619.16;;;17.92;70.61
4834;BME280;12895;51.064;7.028;2023-07-20T04:34:02;100611.78;;;17.94;70.40
4834;BME280;12895;51.064;7.028;2023-07-20T04:36:51;100614.13;;;17.90;70.60
4834;BME280;12895;51.064;7.028;2023-07-20T04:39:40;100614.94;;;17.85;70.93
4834;BME280;12895;51.064;7.028;2023-07-20T04:42:30;100615.56;;;17.97;70.29
4834;BME280;12895;51.064;7.028;2023-07-20T04:45:17;100619.56;;;18.01;70.24
4834;BME280;12895;51.064;7.028;2023-07-20T04:48:08;100613.75;;;17.99;70.23
4834;BME280;12895;51.064;7.028;2023-07-20T04:50:56;100609.19;;;17.96;70.29
4834;BME280;12895;51.064;7.028;2023-07-20T04:53:46;100606.19;;;17.94;70.67
4834;BME280;12895;51.064;7.028;2023-07-20T04:56:33;100613.75;;;17.99;70.31
4834;BME280;12895;51.064;7.028;2023-07-20T04:59:22;100605.56;;;17.83;71.07
4834;BME280;12895;51.064;7.028;2023-07-20T05:02:09;100607.16;;;18.15;70.34
4834;BME280;12895;51.064;7.028;2023-07-20T05:04:56;100604.06;;;18.19;69.83
4834;BME280;12895;51.064;7.028;2023-07-20T05:07:43;100618.28;;;18.02;70.43
4834;BME280;12895;51.064;7.028;2023-07-20T05:10:31;100618.13;;;18.13;70.40
4834;BME280;12895;51.064;7.028;2023-07-20T05:13:19;100623.06;;;18.44;69.37
4834;BME280;12895;51.064;7.028;2023-07-20T05:16:06;100624.94;;;18.36;69.56
4834;BME280;12895;51.064;7.028;2023-07-20T05:18:53;100624.16;;;18.17;70.23
4834;BME280;12895;51.064;7.028;2023-07-20T05:21:42;100613.75;;;18.36;69.59
4834;BME280;12895;51.064;7.028;2023-07-20T05:24:29;100622.91;;;18.18;70.44
4834;BME280;12895;51.064;7.028;2023-07-20T05:27:18;100621.31;;;18.41;69.62
4834;BME280;12895;51.064;7.028;2023-07-20T05:30:06;100627.09;;;18.30;69.97
4834;BME280;12895;51.064;7.028;2023-07-20T05:32:53;100622.66;;;18.16;70.20
4834;BME280;12895;51.064;7.028;2023-07-20T05:35:40;100619.84;;;18.16;70.06
4834;BME280;12895;51.064;7.028;2023-07-20T05:38:27;100629.00;;;17.98;70.77
4834;BME280;12895;51.064;7.028;2023-07-20T05:41:14;100616.56;;;17.99;71.01
4834;BME280;12895;51.064;7.028;2023-07-20T05:44:02;100624.31;;;18.06;70.78
4834;BME280;12895;51.064;7.028;2023-07-20T05:46:49;100623.56;;;18.24;70.24
4834;BME280;12895;51.064;7.028;2023-07-20T05:49:36;100625.38;;;18.22;70.20
4834;BME280;12895;51.064;7.028;2023-07-20T05:52:23;100626.78;;;18.34;69.78
4834;BME280;12895;51.064;7.028;2023-07-20T05:55:10;100636.00;;;18.29;69.87
4834;BME280;12895;51.064;7.028;2023-07-20T05:57:57;100633.25;;;18.23;70.15
4834;BME280;12895;51.064;7.028;2023-07-20T06:00:47;100636.56;;;18.03;70.83
4834;BME280;12895;51.064;7.028;2023-07-20T06:03:35;100634.22;;;18.07;70.84
4834;BME280;12895;51.064;7.028;2023-07-20T06:06:23;100641.81;;;18.12;70.58
4834;BME280;12895;51.064;7.028;2023-07-20T06:09:10;100646.50;;;18.23;70.22
4834;BME280;12895;51.064;7.028;2023-07-20T06:11:57;100642.38;;;18.29;70.39
4834;BME280;12895;51.064;7.028;2023-07-20T06:14:44;100647.03;;;18.58;69.26
4834;BME280;12895;51.064;7.028;2023-07-20T06:17:33;100649.75;;;18.45;69.40
4834;BME280;12895;51.064;7.028;2023-07-20T06:20:21;100645.06;;;18.53;69.34
4834;BME280;12895;51.064;7.028;2023-07-20T06:23:08;100647.94;;;18.66;68.70
4834;BME280;12895;51.064;7.028;2023-07-20T06:25:55;100643.28;;;18.69;68.63
4834;BME280;12895;51.064;7.028;2023-07-20T06:28:42;100643.50;;;19.02;68.08
4834;BME280;12895;51.064;7.028;2023-07-20T06:31:29;100646.94;;;18.95;67.48
4834;BME280;12895;51.064;7.028;2023-07-20T06:34:17;100648.38;;;19.15;67.03
4834;BME280;12895;51.064;7.028;2023-07-20T06:37:05;100644.91;;;19.40;66.39
4834;BME280;12895;51.064;7.028;2023-07-20T06:39:52;100647.06;;;19.60;65.62
4834;BME280;12895;51.064;7.028;2023-07-20T06:42:39;100660.00;;;19.89;64.01
4834;BME280;12895;51.064;7.028;2023-07-20T06:45:26;100655.47;;;19.34;65.98
4834;BME280;12895;51.064;7.028;2023-07-20T06:48:13;100656.72;;;19.20;66.32
4834;BME280;12895;51.064;7.028;2023-07-20T06:51:01;100649.09;;;19.21;66.14
4834;BME280;12895;51.064;7.028;2023-07-20T06:53:48;100653.97;;;19.59;64.73
4834;BME280;12895;51.064;7.028;2023-07-20T06:56:35;100653.97;;;19.59;65.03
4834;BME280;12895;51.064;7.028;2023-07-20T06:59:22;100651.34;;;19.22;65.74
4834;BME280;12895;51.064;7.028;2023-07-20T07:02:10;100655.22;;;19.32;65.94
4834;BME280;12895;51.064;7.028;2023-07-20T07:04:57;100655.91;;;19.64;64.53
4834;BME280;12895;51.064;7.028;2023-07-20T07:07:45;100669.41;;;19.78;63.67
4834;BME280;12895;51.064;7.028;2023-07-20T07:10:33;100664.09;;;19.36;64.72
4834;BME280;12895;51.064;7.028;2023-07-20T07:13:20;100652.25;;;19.56;64.66
4834;BME280;12895;51.064;7.028;2023-07-20T07:16:07;100660.66;;;19.56;64.46
4834;BME280;12895;51.064;7.028;2023-07-20T07:18:56;100664.09;;;19.88;63.28
4834;BME280;12895;51.064;7.028;2023-07-20T07:21:44;100668.28;;;19.94;63.41
4834;BME280;12895;51.064;7.028;2023-07-20T07:24:32;100677.28;;;20.06;62.15
4834;BME280;12895;51.064;7.028;2023-07-20T07:27:20;100665.56;;;20.28;61.61
4834;BME280;12895;51.064;7.028;2023-07-20T07:30:08;100663.53;;;20.28;61.27
4834;BME280;12895;51.064;7.028;2023-07-20T07:32:55;100670.94;;;20.52;60.46
4834;BME280;12895;51.064;7.028;2023-07-20T07:35:42;100676.41;;;20.24;61.71
4834;BME280;12895;51.064;7.028;2023-07-20T07:38:29;100680.63;;;20.17;61.89
4834;BME280;12895;51.064;7.028;2023-07-20T07:41:17;100685.66;;;20.32;62.25
4834;BME280;12895;51.064;7.028;2023-07-20T07:44:04;100687.09;;;20.12;62.85
4834;BME280;12895;51.064;7.028;2023-07-20T07:46:52;100681.56;;;20.33;62.07
4834;BME280;12895;51.064;7.028;2023-07-20T07:49:39;100673.84;;;20.46;59.37
4834;BME280;12895;51.064;7.028;2023-07-20T07:52:26;100677.53;;;20.75;59.01
4834;BME280;12895;51.064;7.028;2023-07-20T07:55:13;100687.78;;;20.72;57.86
4834;BME280;12895;51.064;7.028;2023-07-20T07:58:03;100677.28;;;20.86;57.81
4834;BME280;12895;51.064;7.028;2023-07-20T08:00:51;100687.59;;;20.37;59.41
4834;BME280;12895;51.064;7.028;2023-07-20T08:03:38;100685.66;;;20.32;59.07
4834;BME280;12895;51.064;7.028;2023-07-20T08:06:25;100691.03;;;20.30;58.73
4834;BME280;12895;51.064;7.028;2023-07-20T08:09:12;100693.06;;;20.42;58.62
4834;BME280;12895;51.064;7.028;2023-07-20T08:11:59;100694.53;;;20.23;59.15
4834;BME280;12895;51.064;7.028;2023-07-20T08:14:47;100701.44;;;20.09;59.93
4834;BME280;12895;51.064;7.028;2023-07-20T08:17:35;100697.94;;;20.42;59.26
4834;BME280;12895;51.064;7.028;2023-07-20T08:20:22;100701.69;;;20.91;56.96
4834;BME280;12895;51.064;7.028;2023-07-20T08:23:12;100702.81;;;20.88;55.67
4834;BME280;12895;51.064;7.028;2023-07-20T08:25:59;100702.09;;;20.95;54.87
4834;BME280;12895;51.064;7.028;2023-07-20T08:28:46;100702.22;;;20.56;54.53
4834;BME280;12895;51.064;7.028;2023-07-20T08:31:35;100695.75;;;20.61;53.56
4834;BME280;12895;51.064;7.028;2023-07-20T08:34:22;100698.09;;;20.70;54.44
4834;BME280;12895;51.064;7.028;2023-07-20T08:37:09;100697.56;;;20.58;54.51
4834;BME280;12895;51.064;7.028;2023-07-20T08:39:56;100696.31;;;20.80;53.85
4834;BME280;12895;51.064;7.028;2023-07-20T08:42:44;100704.31;;;21.30;51.60
4834;BME280;12895;51.064;7.028;2023-07-20T08:45:33;100700.69;;;21.22;52.42
4834;BME280;12895;51.064;7.028;2023-07-20T08:48:22;100697.91;;;21.50;51.99
4834;BME280;12895;51.064;7.028;2023-07-20T08:51:12;100705.19;;;21.25;53.28
4834;BME280;12895;51.064;7.028;2023-07-20T08:54:01;100713.63;;;21.45;52.32
4834;BME280;12895;51.064;7.028;2023-07-20T08:56:49;100705.13;;;20.97;53.62
4834;BME280;12895;51.064;7.028;2023-07-20T08:59:36;100700.06;;;20.82;53.96
4834;BME280;12895;51.064;7.028;2023-07-20T09:02:25;100708.22;;;20.73;54.63
4834;BME280;12895;51.064;7.028;2023-07-20T09:05:15;100708.44;;;20.75;54.43
4834;BME280;12895;51.064;7.028;2023-07-20T09:08:02;100699.16;;;21.00;54.58
4834;BME280;12895;51.064;7.028;2023-07-20T09:10:49;100709.06;;;21.14;54.68
4834;BME280;12895;51.064;7.028;2023-07-20T09:13:37;100703.69;;;21.44;49.96
4834;BME280;12895;51.064;7.028;2023-07-20T09:16:24;100700.19;;;21.51;48.73
4834;BME280;12895;51.064;7.028;2023-07-20T09:19:11;100696.75;;;21.45;48.58
4834;BME280;12895;51.064;7.028;2023-07-20T09:22:00;100705.47;;;21.34;49.21
4834;BME280;12895;51.064;7.028;2023-07-20T09:24:47;100687.84;;;21.34;49.88
4834;BME280;12895;51.064;7.028;2023-07-20T09:27:38;100696.91;;;21.40;50.22
4834;BME280;12895;51.064;7.028;2023-07-20T09:30:26;100696.84;;;21.81;48.95
4834;BME280;12895;51.064;7.028;2023-07-20T09:33:18;100691.91;;;21.74;48.66
4834;BME280;12895;51.064;7.028;2023-07-20T09:36:06;100690.47;;;21.80;51.04
4834;BME280;12895;51.064;7.028;2023-07-20T09:38:54;100689.25;;;21.68;50.91
4834;BME280;12895;51.064;7.028;2023-07-20T09:41:41;100693.28;;;21.60;51.14
4834;BME280;12895;51.064;7.028;2023-07-20T09:44:29;100685.16;;;22.05;50.31
4834;BME280;12895;51.064;7.028;2023-07-20T09:47:21;100680.84;;;22.04;49.23
4834;BME280;12895;51.064;7.028;2023-07-20T09:50:09;100686.66;;;22.41;47.56
4834;BME280;12895;51.064;7.028;2023-07-20T09:52:58;100689.75;;;22.73;44.92
4834;BME280;12895;51.064;7.028;2023-07-20T09:55:48;100688.44;;;22.24;44.66
4834;BME280;12895;51.064;7.028;2023-07-20T09:58:35;100683.91;;;22.21;44.91
4834;BME280;12895;51.064;7.028;2023-07-20T10:01:23;100680.56;;;22.30;46.17
4834;BME280;12895;51.064;7.028;2023-07-20T10:04:11;100679.47;;;22.33;44.60
4834;BME280;12895;51.064;7.028;2023-07-20T10:07:03;100679.19;;;22.59;44.81
4834;BME280;12895;51.064;7.028;2023-07-20T10:09:52;100672.72;;;22.93;45.50
4834;BME280;12895;51.064;7.028;2023-07-20T10:12:42;100674.25;;;23.39;44.20
4834;BME280;12895;51.064;7.028;2023-07-20T10:15:33;100680.97;;;23.66;42.25
4834;BME280;12895;51.064;7.028;2023-07-20T10:18:29;100669.75;;;23.21;42.02
4834;BME280;12895;51.064;7.028;2023-07-20T10:21:17;100678.56;;;23.10;42.44
4834;BME280;12895;51.064;7.028;2023-07-20T10:24:05;100677.69;;;22.50;42.77
4834;BME280;12895;51.064;7.028;2023-07-20T10:26:55;100678.84;;;22.62;43.62
4834;BME280;12895;51.064;7.028;2023-07-20T10:29:44;100675.91;;;22.82;42.56
4834;BME280;12895;51.064;7.028;2023-07-20T10:32:31;100676.25;;;22.86;42.25
4834;BME280;12895;51.064;7.028;2023-07-20T10:35:18;100669.84;;;22.64;43.28
4834;BME280;12895;51.064;7.028;2023-07-20T10:38:05;100674.38;;;22.81;43.42
4834;BME280;12895;51.064;7.028;2023-07-20T10:40:54;100675.53;;;23.08;44.79
4834;BME280;12895;51.064;7.028;2023-07-20T10:43:42;100671.06;;;23.28;45.03
4834;BME280;12895;51.064;7.028;2023-07-20T10:46:45;100665.28;;;24.10;44.22
4834;BME280;12895;51.064;7.028;2023-07-20T10:49:33;100661.06;;;24.34;43.87
4834;BME280;12895;51.064;7.028;2023-07-20T10:52:21;100657.22;;;24.46;42.29
4834;BME280;12895;51.064;7.028;2023-07-20T10:55:14;100650.34;;;23.63;41.60
4834;BME280;12895;51.064;7.028;2023-07-20T10:58:06;100651.09;;;23.63;42.23
4834;BME280;12895;51.064;7.028;2023-07-20T11:00:57;100647.84;;;23.74;41.99
4834;BME280;12895;51.064;7.028;2023-07-20T11:03:50;100651.66;;;23.69;41.53
4834;BME280;12895;51.064;7.028;2023-07-20T11:06:37;100646.91;;;23.72;42.78
4834;BME280;12895;51.064;7.028;2023-07-20T11:09:33;100648.59;;;23.97;43.97
4834;BME280;12895;51.064;7.028;2023-07-20T11:12:21;100642.69;;;24.57;39.88
4834;BME280;12895;51.064;7.028;2023-07-20T11:15:08;100641.50;;;24.28;40.93
4834;BME280;12895;51.064;7.028;2023-07-20T11:18:11;100645.88;;;24.14;37.78
4834;BME280;12895;51.064;7.028;2023-07-20T11:21:00;100638.19;;;24.07;37.76
4834;BME280;12895;51.064;7.028;2023-07-20T11:23:48;100647.28;;;23.91;38.97
4834;BME280;12895;51.064;7.028;2023-07-20T11:26:42;100641.63;;;23.98;39.97
4834;BME280;12895;51.064;7.028;2023-07-20T11:29:30;100640.22;;;24.22;39.34
4834;BME280;12895;51.064;7.028;2023-07-20T11:32:20;100630.91;;;24.36;39.64
4834;BME280;12895;51.064;7.028;2023-07-20T11:35:12;100642.38;;;24.38;39.39
4834;BME280;12895;51.064;7.028;2023-07-20T11:38:01;100643.19;;;24.95;39.09
4834;BME280;12895;51.064;7.028;2023-07-20T11:40:48;100636.06;;;25.11;37.43
4834;BME280;12895;51.064;7.028;2023-07-20T11:43:36;100640.13;;;25.25;36.91
4834;BME280;12895;51.064;7.028;2023-07-20T11:46:23;100635.66;;;25.22;37.30
4834;BME280;12895;51.064;7.028;2023-07-20T11:49:11;100641.97;;;25.30;37.84
4834;BME280;12895;51.064;7.028;2023-07-20T11:51:58;100641.09;;;24.96;37.74
4834;BME280;12895;51.064;7.028;2023-07-20T11:54:47;100633.41;;;24.64;38.55
4834;BME280;12895;51.064;7.028;2023-07-20T11:57:34;100641.66;;;24.30;37.91
4834;BME280;12895;51.064;7.028;2023-07-20T12:00:24;100642.44;;;23.61;40.83
4834;BME280;12895;51.064;7.028;2023-07-20T12:03:12;100642.38;;;23.76;39.65
4834;BME280;12895;51.064;7.028;2023-07-20T12:06:06;100646.91;;;23.79;38.98
4834;BME280;12895;51.064;7.028;2023-07-20T12:08:55;100643.91;;;23.77;39.28
4834;BME280;12895;51.064;7.028;2023-07-20T12:11:44;100643.91;;;23.77;38.56
4834;BME280;12895;51.064;7.028;2023-07-20T12:14:31;100638.97;;;24.00;38.37
4834;BME280;12895;51.064;7.028;2023-07-20T12:17:18;100635.91;;;24.13;37.65
4834;BME280;12895;51.064;7.028;2023-07-20T12:20:07;100642.63;;;23.56;39.66
4834;BME280;12895;51.064;7.028;2023-07-20T12:22:57;100632.28;;;23.66;39.70
4834;BME280;12895;51.064;7.028;2023-07-20T12:25:46;100633.41;;;23.70;39.13
4834;BME280;12895;51.064;7.028;2023-07-20T12:28:36;100637.56;;;23.54;38.95
4834;BME280;12895;51.064;7.028;2023-07-20T12:31:25;100646.78;;;23.47;38.34
4834;BME280;12895;51.064;7.028;2023-07-20T12:34:13;100629.31;;;23.41;39.40
4834;BME280;12895;51.064;7.028;2023-07-20T12:37:03;100637.22;;;23.35;39.99
4834;BME280;12895;51.064;7.028;2023-07-20T12:39:50;100629.63;;;23.68;40.34
4834;BME280;12895;51.064;7.028;2023-07-20T12:42:37;100631.09;;;23.91;38.89
4834;BME280;12895;51.064;7.028;2023-07-20T12:45:26;100628.94;;;24.14;38.31
4834;BME280;12895;51.064;7.028;2023-07-20T12:48:13;100637.34;;;24.29;37.76
4834;BME280;12895;51.064;7.028;2023-07-20T12:51:00;100627.22;;;24.58;37.71
4834;BME280;12895;51.064;7.028;2023-07-20T12:53:48;100625.44;;;25.19;37.22
4834;BME280;12895;51.064;7.028;2023-07-20T12:56:35;100620.19;;;25.57;35.36
4834;BME280;12895;51.064;7.028;2023-07-20T12:59:22;100614.66;;;25.25;36.84
4834;BME280;12895;51.064;7.028;2023-07-20T13:02:10;100621.34;;;25.13;36.66
4834;BME280;12895;51.064;7.028;2023-07-20T13:04:57;100615.31;;;24.92;36.93
4834;BME280;12895;51.064;7.028;2023-07-20T13:07:44;100617.38;;;24.91;37.11
4834;BME280;12895;51.064;7.028;2023-07-20T13:10:31;100621.81;;;24.45;37.89
4834;BME280;12895;51.064;7.028;2023-07-20T13:13:19;100616.97;;;23.91;38.28
4834;BME280;12895;51.064;7.028;2023-07-20T13:16:06;100614.94;;;23.92;38.75
4834;BME280;12895;51.064;7.028;2023-07-20T13:18:54;100614.16;;;23.76;39.44
4834;BME280;12895;51.064;7.028;2023-07-20T13:21:41;100613.81;;;23.72;39.15
4834;BME280;12895;51.064;7.028;2023-07-20T13:24:28;100607.09;;;23.53;40.10
4834;BME280;12895;51.064;7.028;2023-07-20T13:27:15;100605.88;;;23.93;38.28
4834;BME280;12895;51.064;7.028;2023-07-20T13:30:04;100605.25;;;24.02;38.62
4834;BME280;12895;51.064;7.028;2023-07-20T13:32:55;100616.16;;;24.45;38.12
4834;BME280;12895;51.064;7.028;2023-07-20T13:35:43;100606.06;;;24.91;37.53
4834;BME280;12895;51.064;7.028;2023-07-20T13:38:31;100608.94;;;25.08;37.50
4834;BME280;12895;51.064;7.028;2023-07-20T13:41:18;100610.09;;;25.05;37.86
4834;BME280;12895;51.064;7.028;2023-07-20T13:44:05;100604.28;;;24.79;37.12
4834;BME280;12895;51.064;7.028;2023-07-20T13:46:52;100597.25;;;24.87;37.74
4834;BME280;12895;51.064;7.028;2023-07-20T13:49:39;100598.75;;;24.88;38.00
4834;BME280;12895;51.064;7.028;2023-07-20T13:52:28;100596.81;;;25.15;38.08
4834;BME280;12895;51.064;7.028;2023-07-20T13:55:15;100596.72;;;25.64;36.94
4834;BME280;12895;51.064;7.028;2023-07-20T13:58:02;100597.31;;;26.13;36.95
4834;BME280;12895;51.064;7.028;2023-07-20T14:00:49;100583.41;;;26.61;35.95
4834;BME280;12895;51.064;7.028;2023-07-20T14:03:36;100570.72;;;26.98;34.89
4834;BME280;12895;51.064;7.028;2023-07-20T14:06:24;100571.63;;;27.10;33.50
4834;BME280;12895;51.064;7.028;2023-07-20T14:09:13;100561.72;;;27.85;34.19
4834;BME280;12895;51.064;7.028;2023-07-20T14:12:00;100564.72;;;27.58;32.07
4834;BME280;12895;51.064;7.028;2023-07-20T14:14:46;100564.97;;;27.24;33.34
4834;BME280;12895;51.064;7.028;2023-07-20T14:17:33;100553.41;;;27.03;33.28
4834;BME280;12895;51.064;7.028;2023-07-20T14:20:21;100556.69;;;27.00;35.04
4834;BME280;12895;51.064;7.028;2023-07-20T14:23:08;100555.28;;;27.37;33.17
4834;BME280;12895;51.064;7.028;2023-07-20T14:25:56;100556.34;;;27.60;33.48
4834;BME280;12895;51.064;7.028;2023-07-20T14:28:43;100556.84;;;28.75;30.67
4834;BME280;12895;51.064;7.028;2023-07-20T14:31:30;100551.78;;;29.24;29.31
4834;BME280;12895;51.064;7.028;2023-07-20T14:34:17;100556.72;;;31.34;26.50
4834;BME280;12895;51.064;7.028;2023-07-20T14:37:04;100557.78;;;30.70;27.18
4834;BME280;12895;51.064;7.028;2023-07-20T14:39:51;100552.22;;;29.51;29.39
4834;BME280;12895;51.064;7.028;2023-07-20T14:42:40;100560.81;;;27.63;31.48
4834;BME280;12895;51.064;7.028;2023-07-20T14:45:28;100548.25;;;26.83;33.43
4834;BME280;12895;51.064;7.028;2023-07-20T14:48:16;100546.63;;;26.89;34.93
4834;BME280;12895;51.064;7.028;2023-07-20T14:51:03;100551.94;;;29.47;31.97